Time;durP1;ratioP1;P1;durP2;ratioP2;P2;SDS_P1;SDS_P2;PMS_P1;PMS_P2;Temp;Humidity;BMP_temperature;BMP_pressure;BME280_temperature;BME280_humidity;BME280_pressure;Samples;Min_cycle;Max_cycle;Signal;HPM_P1;HPM_P2
2022/03/11 00:02:05;;;;;;;22.95;10.27;;;6.30;57.80;;;;;;5011537;28;20037;-68
2022/03/11 00:04:31;;;;;;;25.40;9.88;;;6.30;57.70;;;;;;5011584;28;20041;-68
2022/03/11 00:06:57;;;;;;;21.77;10.07;;;6.20;57.80;;;;;;5011433;28;20030;-68
2022/03/11 00:09:23;;;;;;;20.48;10.10;;;6.20;57.80;;;;;;5011872;28;20022;-68
2022/03/11 00:11:48;;;;;;;19.75;10.20;;;6.20;58.30;;;;;;5011601;28;20397;-68
2022/03/11 00:14:14;;;;;;;19.83;9.85;;;6.10;58.00;;;;;;5011216;28;20045;-69
2022/03/11 00:16:39;;;;;;;17.40;9.10;;;6.10;58.00;;;;;;5013788;28;20044;-67
2022/03/11 00:19:05;;;;;;;19.92;9.48;;;6.10;58.10;;;;;;5011990;28;20038;-69
2022/03/11 00:21:31;;;;;;;18.10;9.60;;;6.10;58.40;;;;;;5012632;28;20049;-67
2022/03/11 00:23:56;;;;;;;20.65;9.70;;;6.10;58.10;;;;;;5012158;28;20049;-70
2022/03/11 00:26:22;;;;;;;20.25;9.93;;;6.10;58.20;;;;;;5012987;28;20464;-69
2022/03/11 00:28:47;;;;;;;19.88;10.07;;;6.10;58.20;;;;;;5012376;28;20048;-68
2022/03/11 00:31:13;;;;;;;18.65;9.82;;;6.00;58.60;;;;;;5012007;28;20022;-67
2022/03/11 00:33:38;;;;;;;21.73;9.63;;;6.00;58.60;;;;;;5011369;28;20468;-69
2022/03/11 00:36:04;;;;;;;21.60;9.13;;;6.00;58.70;;;;;;5011537;28;20034;-67
2022/03/11 00:38:30;;;;;;;20.50;10.13;;;6.10;58.50;;;;;;5011660;28;20046;-68
2022/03/11 00:40:58;;;;;;;20.85;10.25;;;6.00;58.60;;;;;;5011390;28;20049;-68
2022/03/11 00:43:25;;;;;;;19.27;10.07;;;5.90;58.60;;;;;;5012554;28;20040;-68
2022/03/11 00:45:51;;;;;;;26.00;9.68;;;6.00;58.40;;;;;;5019353;28;20092;-66
2022/03/11 00:48:17;;;;;;;18.02;9.43;;;6.10;58.20;;;;;;5011257;28;20057;-68
2022/03/11 00:50:43;;;;;;;24.20;9.40;;;6.00;58.20;;;;;;5010932;28;20100;-66
2022/03/11 00:53:09;;;;;;;22.67;9.80;;;5.90;58.50;;;;;;5010894;28;20034;-67
2022/03/11 00:55:34;;;;;;;25.38;10.18;;;5.80;58.70;;;;;;5010930;28;20632;-68
2022/03/11 00:58:00;;;;;;;20.88;11.40;;;5.90;58.90;;;;;;5009775;28;20121;-67
2022/03/11 01:00:26;;;;;;;20.38;9.75;;;5.90;58.70;;;;;;5010241;28;20040;-68
2022/03/11 01:02:52;;;;;;;18.80;9.30;;;5.90;58.60;;;;;;5010984;28;20045;-68
2022/03/11 01:05:19;;;;;;;23.15;10.32;;;5.90;58.60;;;;;;5010760;28;20037;-68
2022/03/11 01:07:45;;;;;;;19.25;9.32;;;5.90;58.70;;;;;;5010923;28;20070;-69
2022/03/11 01:10:10;;;;;;;26.85;10.07;;;5.80;58.80;;;;;;5009686;28;20065;-68
2022/03/11 01:12:37;;;;;;;20.92;9.93;;;5.90;58.70;;;;;;5016315;28;20056;-68
2022/03/11 01:15:03;;;;;;;20.15;10.30;;;5.90;58.70;;;;;;5011074;28;20041;-67
2022/03/11 01:17:29;;;;;;;23.65;9.63;;;5.90;58.60;;;;;;5010695;28;20057;-68
2022/03/11 01:19:55;;;;;;;19.00;9.32;;;5.80;58.70;;;;;;5010764;28;20408;-68
2022/03/11 01:22:20;;;;;;;20.63;9.45;;;5.80;58.90;;;;;;5010751;28;20030;-68
2022/03/11 01:24:46;;;;;;;21.70;9.45;;;5.80;58.80;;;;;;5010960;28;20321;-68
2022/03/11 01:27:12;;;;;;;23.27;10.13;;;5.80;59.10;;;;;;5013121;28;20037;-68
2022/03/11 01:29:37;;;;;;;18.40;9.38;;;5.60;59.30;;;;;;5013079;28;20504;-68
2022/03/11 01:32:03;;;;;;;18.45;9.50;;;5.80;59.10;;;;;;5016286;28;20034;-67
2022/03/11 01:34:29;;;;;;;21.75;9.63;;;5.70;59.00;;;;;;5015517;28;20030;-68
2022/03/11 01:36:54;;;;;;;20.88;9.05;;;5.70;59.10;;;;;;5016104;28;20037;-68
2022/03/11 01:39:20;;;;;;;20.88;9.43;;;5.60;59.10;;;;;;5016353;28;20037;-68
2022/03/11 01:41:46;;;;;;;17.50;9.07;;;5.50;59.20;;;;;;5014550;28;20036;-68
2022/03/11 01:44:12;;;;;;;23.83;8.98;;;5.50;59.00;;;;;;5021042;28;20048;-67
2022/03/11 01:46:37;;;;;;;21.42;9.45;;;5.60;58.90;;;;;;5031759;28;20152;-67
2022/03/11 01:49:05;;;;;;;21.55;9.00;;;5.40;59.00;;;;;;5032695;28;20058;-68
2022/03/11 01:51:33;;;;;;;18.10;8.85;;;5.40;59.00;;;;;;5032468;28;20018;-67
2022/03/11 01:54:00;;;;;;;20.40;9.30;;;5.30;59.00;;;;;;5023989;28;20073;-68
2022/03/11 01:56:26;;;;;;;18.88;8.77;;;5.30;59.00;;;;;;5020046;28;20026;-68
2022/03/11 01:58:54;;;;;;;17.92;8.40;;;5.20;59.00;;;;;;5017105;28;20061;-68
2022/03/11 02:01:21;;;;;;;19.70;8.48;;;5.20;59.10;;;;;;5013713;28;20026;-69
2022/03/11 02:03:48;;;;;;;17.15;8.13;;;5.20;59.10;;;;;;5013642;28;20515;-69
2022/03/11 02:06:14;;;;;;;17.05;7.68;;;5.20;58.80;;;;;;5013990;28;20088;-69
2022/03/11 02:08:40;;;;;;;21.90;7.60;;;5.20;58.90;;;;;;5013725;28;20103;-68
2022/03/11 02:11:07;;;;;;;18.13;8.40;;;5.30;58.70;;;;;;5013810;28;20065;-69
2022/03/11 02:13:42;;;;;;;18.65;8.30;;;5.20;58.60;;;;;;5026194;28;20038;-67
2022/03/11 02:16:07;;;;;;;16.35;7.95;;;5.20;58.60;;;;;;5025955;28;20065;-68
2022/03/11 02:18:33;;;;;;;18.23;8.43;;;5.10;58.40;;;;;;5016712;28;20030;-67
2022/03/11 02:20:58;;;;;;;19.73;8.82;;;5.00;58.40;;;;;;5032160;28;20034;-68
2022/03/11 02:23:27;;;;;;;16.55;7.88;;;4.90;58.40;;;;;;5031708;28;20391;-66
2022/03/11 02:25:53;;;;;;;13.73;7.63;;;4.70;58.70;;;;;;5029218;28;20530;-68
2022/03/11 02:28:18;;;;;;;16.02;7.40;;;4.70;58.80;;;;;;5017901;28;20034;-69
2022/03/11 02:30:44;;;;;;;18.05;7.57;;;4.60;58.90;;;;;;5012956;28;20025;-68
2022/03/11 02:33:09;;;;;;;17.20;8.23;;;4.60;59.00;;;;;;5013546;28;20018;-68
2022/03/11 02:35:35;;;;;;;16.73;8.48;;;4.60;59.10;;;;;;5019342;28;20021;-68
2022/03/11 02:38:00;;;;;;;17.52;8.95;;;4.70;59.00;;;;;;5031551;28;20030;-68
2022/03/11 02:40:26;;;;;;;16.17;8.02;;;4.50;59.00;;;;;;5033246;28;20125;-66
2022/03/11 02:42:51;;;;;;;16.40;7.85;;;4.50;59.20;;;;;;5034290;28;20029;-68
2022/03/11 02:45:17;;;;;;;15.57;7.70;;;4.50;59.30;;;;;;5034550;28;20026;-67
2022/03/11 02:47:43;;;;;;;19.15;7.45;;;4.50;59.40;;;;;;5033762;28;20045;-68
2022/03/11 02:50:09;;;;;;;19.40;7.90;;;4.40;59.50;;;;;;5034244;28;20056;-69
2022/03/11 02:52:34;;;;;;;16.38;7.75;;;4.50;59.30;;;;;;5034166;28;20099;-69
2022/03/11 02:55:00;;;;;;;19.50;7.53;;;4.50;59.30;;;;;;5033783;28;20030;-69
2022/03/11 02:57:26;;;;;;;16.15;8.15;;;4.40;59.10;;;;;;5033671;28;20517;-69
2022/03/11 02:59:51;;;;;;;16.45;7.93;;;4.40;59.50;;;;;;5032842;28;20050;-68
2022/03/11 03:02:17;;;;;;;18.13;7.90;;;4.50;59.60;;;;;;5032702;28;20111;-68
2022/03/11 03:04:43;;;;;;;15.07;7.15;;;4.50;59.50;;;;;;5031420;28;20065;-67
2022/03/11 03:07:09;;;;;;;21.75;8.40;;;4.60;59.40;;;;;;5032912;28;20674;-68
2022/03/11 03:09:41;;;;;;;15.25;7.47;;;4.60;59.10;;;;;;5032671;28;20029;-68
2022/03/11 03:12:09;;;;;;;17.75;7.82;;;4.60;59.10;;;;;;5032262;28;20097;-68
2022/03/11 03:14:34;;;;;;;15.73;7.93;;;4.50;59.30;;;;;;5032212;28;20039;-67
2022/03/11 03:17:00;;;;;;;15.60;7.90;;;4.40;59.20;;;;;;5030922;28;20113;-69
2022/03/11 03:19:25;;;;;;;15.90;7.18;;;4.40;59.30;;;;;;5032116;28;20033;-69
2022/03/11 03:21:51;;;;;;;16.05;7.47;;;4.30;59.30;;;;;;5030914;28;20029;-68
2022/03/11 03:24:16;;;;;;;17.23;8.13;;;4.40;59.50;;;;;;5032537;28;20313;-68
2022/03/11 03:26:42;;;;;;;15.90;7.72;;;4.50;59.40;;;;;;5032143;28;20029;-68
2022/03/11 03:29:08;;;;;;;17.38;8.00;;;4.50;59.30;;;;;;5032161;28;20162;-68
2022/03/11 03:31:33;;;;;;;21.23;8.20;;;4.50;59.40;;;;;;5031983;28;20029;-68
2022/03/11 03:34:00;;;;;;;21.05;8.75;;;4.40;59.50;;;;;;5030794;28;20023;-68
2022/03/11 03:36:26;;;;;;;18.42;7.13;;;4.40;59.40;;;;;;5031220;28;20471;-67
2022/03/11 03:38:51;;;;;;;18.60;8.80;;;4.40;59.30;;;;;;5031800;28;20171;-68
2022/03/11 03:41:17;;;;;;;19.05;8.32;;;4.30;59.50;;;;;;5031667;28;20120;-68
2022/03/11 03:43:42;;;;;;;15.18;7.35;;;4.30;59.60;;;;;;5031402;28;20036;-67
2022/03/11 03:46:08;;;;;;;16.33;7.78;;;4.30;59.70;;;;;;5031510;28;20052;-67
2022/03/11 03:48:34;;;;;;;21.10;8.45;;;4.40;59.60;;;;;;5031641;28;20433;-67
2022/03/11 03:51:00;;;;;;;14.93;7.72;;;4.40;59.50;;;;;;5030037;28;20029;-68
2022/03/11 03:53:25;;;;;;;17.95;8.07;;;4.30;60.20;;;;;;5031597;28;20026;-67
2022/03/11 03:55:51;;;;;;;15.48;7.57;;;4.30;59.60;;;;;;5031553;28;20048;-68
2022/03/11 03:58:16;;;;;;;17.92;8.32;;;4.20;59.80;;;;;;5031415;28;20072;-68
2022/03/11 04:00:42;;;;;;;17.23;8.63;;;4.20;59.90;;;;;;5031313;28;20029;-68
2022/03/11 04:03:07;;;;;;;19.15;8.10;;;4.30;59.70;;;;;;5031714;28;20630;-68
2022/03/11 04:05:33;;;;;;;17.50;8.32;;;4.30;59.70;;;;;;5031667;28;20556;-68
2022/03/11 04:07:59;;;;;;;16.88;8.20;;;4.10;59.80;;;;;;5031185;28;20029;-67
2022/03/11 04:10:24;;;;;;;15.32;7.40;;;4.20;59.80;;;;;;5031605;28;20124;-68
2022/03/11 04:12:50;;;;;;;18.10;9.20;;;4.10;59.70;;;;;;5031237;28;20021;-67
2022/03/11 04:15:16;;;;;;;16.13;8.25;;;4.10;59.90;;;;;;5031806;28;20336;-68
2022/03/11 04:17:41;;;;;;;25.55;7.47;;;4.10;59.90;;;;;;5031218;28;20076;-68
2022/03/11 04:20:08;;;;;;;22.80;8.35;;;4.10;59.60;;;;;;5031180;28;20505;-68
2022/03/11 04:22:40;;;;;;;16.35;7.88;;;4.00;59.70;;;;;;5031054;28;20359;-68
2022/03/11 04:25:05;;;;;;;17.83;7.63;;;4.00;59.70;;;;;;5031358;28;20053;-69
2022/03/11 04:27:31;;;;;;;16.92;8.30;;;4.00;60.00;;;;;;5031333;28;20084;-67
2022/03/11 04:29:57;;;;;;;19.15;7.72;;;4.00;60.00;;;;;;5030842;28;20392;-68
2022/03/11 04:32:22;;;;;;;22.02;8.73;;;3.90;60.00;;;;;;5030888;28;20033;-68
2022/03/11 04:34:48;;;;;;;17.63;8.77;;;4.00;60.10;;;;;;5031047;28;20030;-69
2022/03/11 04:37:13;;;;;;;19.02;8.70;;;4.00;60.00;;;;;;5030867;28;20044;-68
2022/03/11 04:39:39;;;;;;;17.65;8.88;;;3.90;59.90;;;;;;5031319;28;20355;-69
2022/03/11 04:42:06;;;;;;;19.48;9.43;;;3.90;60.00;;;;;;5030014;28;20033;-69
2022/03/11 04:44:32;;;;;;;24.03;10.70;;;3.90;60.00;;;;;;5031486;28;20121;-68
2022/03/11 04:46:58;;;;;;;19.08;9.18;;;3.80;60.00;;;;;;5031209;28;20282;-66
2022/03/11 04:49:23;;;;;;;20.90;9.68;;;3.80;60.00;;;;;;5031007;28;20717;-70
2022/03/11 04:51:49;;;;;;;23.35;9.07;;;3.60;60.60;;;;;;5031114;28;20525;-68
2022/03/11 04:54:14;;;;;;;20.30;9.57;;;3.50;60.20;;;;;;5031419;28;20128;-68
2022/03/11 04:56:40;;;;;;;21.67;10.02;;;3.50;60.90;;;;;;5031111;28;20053;-68
2022/03/11 04:59:05;;;;;;;19.10;8.55;;;3.50;61.20;;;;;;5030935;28;20048;-68
2022/03/11 05:01:31;;;;;;;21.63;9.73;;;3.60;61.00;;;;;;5031868;28;20381;-69
2022/03/11 05:03:56;;;;;;;23.85;9.90;;;3.60;60.70;;;;;;5017250;28;20022;-67
2022/03/11 05:06:22;;;;;;;20.42;8.98;;;3.60;60.60;;;;;;5035054;28;20080;-68
2022/03/11 05:08:48;;;;;;;17.05;7.57;;;3.60;60.50;;;;;;5034569;28;20451;-68
2022/03/11 05:11:13;;;;;;;17.52;8.50;;;3.50;61.00;;;;;;5034274;28;20045;-68
2022/03/11 05:13:39;;;;;;;22.30;8.27;;;3.40;60.90;;;;;;5033257;28;20029;-69
2022/03/11 05:16:04;;;;;;;19.27;8.35;;;3.30;60.80;;;;;;5034389;28;20029;-67
2022/03/11 05:18:30;;;;;;;20.02;8.45;;;3.40;60.90;;;;;;5034717;28;20348;-67
2022/03/11 05:20:56;;;;;;;18.73;8.48;;;3.40;61.00;;;;;;5033159;28;20356;-69
2022/03/11 05:23:21;;;;;;;18.13;8.02;;;3.30;61.00;;;;;;5034495;28;20453;-69
2022/03/11 05:25:47;;;;;;;18.75;7.95;;;3.30;61.00;;;;;;5034136;28;20040;-69
2022/03/11 05:28:13;;;;;;;17.73;8.57;;;3.40;61.00;;;;;;5034567;28;20030;-69
2022/03/11 05:30:39;;;;;;;16.67;7.88;;;3.40;60.80;;;;;;5033296;28;20082;-69
2022/03/11 05:33:05;;;;;;;23.48;8.68;;;3.30;60.80;;;;;;5033869;28;20049;-68
2022/03/11 05:35:30;;;;;;;18.40;8.45;;;3.30;61.00;;;;;;5034082;28;20025;-68
2022/03/11 05:37:56;;;;;;;18.00;8.38;;;3.30;60.80;;;;;;5034011;28;20029;-68
2022/03/11 05:40:22;;;;;;;19.08;8.40;;;3.40;60.80;;;;;;5033980;28;20038;-68
2022/03/11 05:42:47;;;;;;;18.45;7.82;;;3.20;60.80;;;;;;5033803;28;20087;-69
2022/03/11 05:45:13;;;;;;;21.50;8.98;;;3.30;61.40;;;;;;5034165;28;20040;-69
2022/03/11 05:47:39;;;;;;;27.30;9.07;;;3.30;60.60;;;;;;5032544;28;20054;-68
2022/03/11 05:50:05;;;;;;;23.23;8.63;;;3.40;60.70;;;;;;5032639;28;20033;-68
2022/03/11 05:52:34;;;;;;;20.20;8.82;;;3.40;60.80;;;;;;5032577;28;20029;-69
2022/03/11 05:54:59;;;;;;;20.67;8.13;;;3.40;60.70;;;;;;5033522;28;20022;-68
2022/03/11 05:57:25;;;;;;;20.02;8.75;;;3.40;60.60;;;;;;5032949;28;20022;-69
2022/03/11 05:59:50;;;;;;;20.52;8.27;;;3.40;60.40;;;;;;5033554;28;20068;-69
2022/03/11 06:02:16;;;;;;;20.27;8.55;;;3.40;60.30;;;;;;5033329;28;20459;-70
2022/03/11 06:04:42;;;;;;;22.38;8.25;;;3.50;60.30;;;;;;5034401;28;20518;-68
2022/03/11 06:07:07;;;;;;;20.33;8.50;;;3.30;60.10;;;;;;5036251;28;20025;-69
2022/03/11 06:09:34;;;;;;;19.60;8.57;;;3.30;60.40;;;;;;5037317;28;20029;-69
2022/03/11 06:11:59;;;;;;;15.68;8.13;;;3.30;60.30;;;;;;5037482;28;20125;-68
2022/03/11 06:14:25;;;;;;;21.25;9.15;;;3.30;60.10;;;;;;5037530;28;20049;-69
2022/03/11 06:16:51;;;;;;;22.90;8.80;;;3.30;60.20;;;;;;5037226;28;20399;-68
2022/03/11 06:19:16;;;;;;;20.73;8.35;;;3.20;60.10;;;;;;5037405;28;20061;-68
2022/03/11 06:21:42;;;;;;;22.00;8.07;;;3.30;60.10;;;;;;5032894;28;20078;-68
2022/03/11 06:24:08;;;;;;;21.23;7.82;;;3.20;59.90;;;;;;5033591;28;20032;-69
2022/03/11 06:26:33;;;;;;;18.75;8.00;;;3.20;59.90;;;;;;5033103;28;20486;-69
2022/03/11 06:28:59;;;;;;;16.27;8.10;;;3.30;59.80;;;;;;5031816;28;20129;-69
2022/03/11 06:31:25;;;;;;;20.73;8.95;;;3.30;59.80;;;;;;5035569;28;20022;-72
2022/03/11 06:33:51;;;;;;;21.02;8.32;;;3.30;59.70;;;;;;5033437;28;20025;-70
2022/03/11 06:36:16;;;;;;;18.70;8.15;;;3.30;59.70;;;;;;5033300;28;20456;-69
2022/03/11 06:38:42;;;;;;;24.38;8.38;;;3.20;59.70;;;;;;5033501;28;20087;-70
2022/03/11 06:41:08;;;;;;;18.80;8.88;;;3.30;59.70;;;;;;5032698;28;20036;-71
2022/03/11 06:43:34;;;;;;;21.95;9.32;;;3.30;59.60;;;;;;5032499;28;20036;-70
2022/03/11 06:45:59;;;;;;;21.35;8.23;;;3.30;59.60;;;;;;5032501;28;20501;-71
2022/03/11 06:48:25;;;;;;;25.73;8.45;;;3.40;59.40;;;;;;5032864;28;20565;-70
2022/03/11 06:50:52;;;;;;;22.23;8.43;;;3.30;59.60;;;;;;5034074;28;20044;-70
2022/03/11 06:53:18;;;;;;;17.65;7.75;;;3.30;59.30;;;;;;5033409;28;20066;-71
2022/03/11 06:55:44;;;;;;;20.25;8.65;;;3.30;59.20;;;;;;5030701;28;20035;-70
2022/03/11 06:58:09;;;;;;;14.95;8.15;;;3.40;59.10;;;;;;5011782;28;20105;-71
2022/03/11 07:00:35;;;;;;;19.35;8.15;;;3.50;58.90;;;;;;5013038;28;20028;-71
2022/03/11 07:03:02;;;;;;;19.30;7.53;;;3.50;58.50;;;;;;5013196;28;20582;-69
2022/03/11 07:05:28;;;;;;;22.90;7.72;;;3.60;59.10;;;;;;5013277;28;20026;-69
2022/03/11 07:07:53;;;;;;;16.55;8.20;;;3.60;58.80;;;;;;5013274;28;20087;-69
2022/03/11 07:10:20;;;;;;;18.52;7.55;;;3.70;58.40;;;;;;5013589;28;20033;-72
2022/03/11 07:12:46;;;;;;;21.73;7.65;;;3.70;58.70;;;;;;5013542;28;20060;-71
2022/03/11 07:15:11;;;;;;;20.27;8.50;;;3.70;58.00;;;;;;5015058;28;20065;-69
2022/03/11 07:17:37;;;;;;;17.73;8.75;;;3.60;58.00;;;;;;5012689;28;20041;-67
2022/03/11 07:20:03;;;;;;;16.67;7.30;;;3.70;57.90;;;;;;5012160;28;20456;-70
2022/03/11 07:22:30;;;;;;;21.63;8.93;;;3.60;57.70;;;;;;5012327;28;20136;-68
2022/03/11 07:24:58;;;;;;;23.13;7.93;;;3.80;57.90;;;;;;5010404;28;20022;-71
2022/03/11 07:27:24;;;;;;;;;;;3.80;57.50;;;;;;5013061;28;20041;-72
2022/03/11 07:29:50;;;;;;;14.48;7.60;;;3.90;57.30;;;;;;5012305;28;19925;-71
2022/03/11 07:32:17;;;;;;;17.63;7.57;;;3.90;56.70;;;;;;5012213;28;20084;-69
2022/03/11 07:34:43;;;;;;;15.90;7.00;;;3.90;56.60;;;;;;5012071;28;20030;-70
2022/03/11 07:37:12;;;;;;;17.63;7.65;;;3.90;56.70;;;;;;5011715;28;20113;-71
2022/03/11 07:39:39;;;;;;;17.42;7.97;;;4.00;56.40;;;;;;5011093;28;20430;-69
2022/03/11 07:42:04;;;;;;;16.57;7.87;;;4.00;56.20;;;;;;5011659;28;20034;-70
2022/03/11 07:44:30;;;;;;;19.08;8.07;;;4.10;55.90;;;;;;5011888;28;20270;-68
2022/03/11 07:46:55;;;;;;;18.02;7.43;;;4.00;55.80;;;;;;5011102;28;20054;-69
2022/03/11 07:49:23;;;;;;;16.15;7.93;;;4.10;56.00;;;;;;5012129;28;20048;-68
2022/03/11 07:51:48;;;;;;;21.23;8.07;;;4.10;55.40;;;;;;5012098;28;20018;-67
2022/03/11 07:54:14;;;;;;;19.00;6.93;;;4.20;55.40;;;;;;5012471;28;20053;-67
2022/03/11 07:56:41;;;;;;;19.77;8.18;;;4.20;55.50;;;;;;5012419;28;20428;-69
2022/03/11 07:59:06;;;;;;;19.30;7.45;;;4.30;55.50;;;;;;5012153;28;20117;-70
2022/03/11 08:01:33;;;;;;;16.23;6.78;;;4.40;55.30;;;;;;5011753;28;20431;-68
2022/03/11 08:03:59;;;;;;;23.40;7.95;;;4.40;55.10;;;;;;5011435;28;20437;-70
2022/03/11 08:06:24;;;;;;;17.02;7.57;;;4.30;54.60;;;;;;5011748;28;20025;-70
2022/03/11 08:08:50;;;;;;;19.85;7.50;;;4.30;54.50;;;;;;5011421;28;20145;-69
2022/03/11 08:11:16;;;;;;;17.10;7.90;;;4.20;54.50;;;;;;5011127;28;20150;-70
2022/03/11 08:13:42;;;;;;;17.77;8.95;;;4.40;54.70;;;;;;5011355;28;20046;-70
2022/03/11 08:16:08;;;;;;;17.30;7.07;;;4.50;54.30;;;;;;5011081;28;20026;-70
2022/03/11 08:18:35;;;;;;;17.27;6.85;;;4.60;54.10;;;;;;5011846;28;20424;-69
2022/03/11 08:21:04;;;;;;;16.85;7.85;;;4.60;54.10;;;;;;5011006;28;20030;-70
2022/03/11 08:23:30;;;;;;;19.90;7.72;;;4.70;53.80;;;;;;5011095;28;20450;-69
2022/03/11 08:25:56;;;;;;;20.55;6.72;;;4.70;53.60;;;;;;5011222;28;20145;-69
2022/03/11 08:28:22;;;;;;;13.43;6.07;;;4.80;53.60;;;;;;5011207;28;20038;-70
2022/03/11 08:30:48;;;;;;;13.82;6.63;;;4.90;53.30;;;;;;5010714;28;20030;-68
2022/03/11 08:33:20;;;;;;;15.15;6.57;;;4.90;52.50;;;;;;5011254;28;20029;-69
2022/03/11 08:35:47;;;;;;;13.15;6.55;;;4.80;51.70;;;;;;5012034;28;20026;-68
2022/03/11 08:38:12;;;;;;;22.85;8.82;;;4.80;51.60;;;;;;5010837;28;20030;-70
2022/03/11 08:40:38;;;;;;;15.68;7.30;;;4.80;51.80;;;;;;5010835;28;20111;-69
2022/03/11 08:43:03;;;;;;;17.95;7.00;;;4.90;51.30;;;;;;5010812;28;20022;-69
2022/03/11 08:45:30;;;;;;;15.63;6.40;;;4.90;50.90;;;;;;5011266;28;20332;-68
2022/03/11 08:47:55;;;;;;;16.33;6.70;;;5.00;51.00;;;;;;5009588;28;20076;-69
2022/03/11 08:50:21;;;;;;;17.33;6.93;;;5.20;51.10;;;;;;5011122;28;20464;-70
2022/03/11 08:52:47;;;;;;;18.05;7.10;;;5.10;50.30;;;;;;5010727;28;20400;-72
2022/03/11 08:55:14;;;;;;;15.93;6.30;;;5.20;50.00;;;;;;5010956;28;20038;-73
2022/03/11 08:57:40;;;;;;;15.48;6.97;;;5.30;49.70;;;;;;5011379;28;20036;-71
2022/03/11 09:00:12;;;;;;;22.95;8.63;;;5.40;49.90;;;;;;5010980;28;20438;-73
2022/03/11 09:02:38;;;;;;;18.88;6.55;;;5.60;49.40;;;;;;5010732;28;20038;-72
2022/03/11 09:05:05;;;;;;;19.02;6.22;;;6.80;48.70;;;;;;5010927;28;20033;-72
2022/03/11 09:07:32;;;;;;;13.93;6.32;;;8.60;46.60;;;;;;5011009;28;20034;-73
2022/03/11 09:09:59;;;;;;;17.17;6.03;;;10.00;42.90;;;;;;5010802;28;20018;-74
2022/03/11 09:12:24;;;;;;;12.57;6.15;;;11.10;41.50;;;;;;5010217;28;20045;-72
2022/03/11 09:14:50;;;;;;;18.45;5.85;;;12.60;41.00;;;;;;5010673;28;20068;-69
2022/03/11 09:17:16;;;;;;;16.85;6.25;;;13.70;39.00;;;;;;5010452;28;20030;-70
2022/03/11 09:19:44;;;;;;;17.60;7.18;;;14.50;38.30;;;;;;5010738;28;20042;-72
2022/03/11 09:22:14;;;;;;;17.67;6.78;;;14.90;35.40;;;;;;5010564;28;20117;-71
2022/03/11 09:24:44;;;;;;;13.57;6.10;;;15.70;34.60;;;;;;5011138;28;20026;-71
2022/03/11 09:27:11;;;;;;;14.05;6.22;;;15.70;33.50;;;;;;5010535;28;20107;-70
2022/03/11 09:29:38;;;;;;;14.05;6.40;;;16.30;32.90;;;;;;5010449;28;20510;-69
2022/03/11 09:32:04;;;;;;;15.68;6.10;;;16.60;31.50;;;;;;5009336;28;20515;-70
2022/03/11 09:34:30;;;;;;;13.18;6.53;;;17.10;31.80;;;;;;5009184;28;20048;-70
2022/03/11 09:36:57;;;;;;;19.40;7.18;;;17.60;30.30;;;;;;5010398;28;20069;-71
2022/03/11 09:39:23;;;;;;;14.85;6.40;;;18.30;30.90;;;;;;5010780;28;20033;-71
2022/03/11 09:41:49;;;;;;;14.02;7.07;;;18.90;29.60;;;;;;5010323;28;20030;-71
2022/03/11 09:44:16;;;;;;;22.27;8.68;;;19.80;29.30;;;;;;5010395;28;20026;-73
2022/03/11 09:46:42;;;;;;;15.60;6.43;;;19.80;28.70;;;;;;5010175;28;20391;-69
2022/03/11 09:49:11;;;;;;;11.40;5.82;;;21.10;29.00;;;;;;5013877;28;20037;-71
2022/03/11 09:51:37;;;;;;;12.88;6.18;;;21.00;28.00;;;;;;5014387;28;20124;-72
2022/03/11 09:54:03;;;;;;;14.32;6.57;;;20.10;27.40;;;;;;5013803;28;20030;-71
2022/03/11 09:56:29;;;;;;;15.07;5.97;;;19.60;28.10;;;;;;5013699;28;20048;-72
2022/03/11 09:58:55;;;;;;;12.23;6.50;;;19.90;27.60;;;;;;5012801;28;20026;-73
2022/03/11 10:01:21;;;;;;;18.95;7.07;;;19.70;27.60;;;;;;5014207;28;20452;-72
2022/03/11 10:03:47;;;;;;;18.48;7.22;;;20.20;27.80;;;;;;5014818;28;20040;-72
2022/03/11 10:06:12;;;;;;;12.00;6.03;;;20.80;27.50;;;;;;5014998;28;20034;-71
2022/03/11 10:08:40;;;;;;;11.20;6.30;;;21.90;27.40;;;;;;5014885;28;20054;-72
2022/03/11 10:11:22;;;;;;;16.60;6.22;;;22.20;27.20;;;;;;5014717;28;20034;-74
2022/03/11 10:13:48;;;;;;;13.23;6.45;;;20.70;26.20;;;;;;5013918;28;20057;-72
2022/03/11 10:16:25;;;;;;;10.73;6.25;;;21.30;26.30;;;;;;5013886;28;20042;-71
2022/03/11 10:19:02;;;;;;;9.40;5.80;;;21.00;26.20;;;;;;5014983;28;20030;-72
2022/03/11 10:21:33;;;;;;;10.80;5.72;;;21.20;26.50;;;;;;5014078;28;20032;-72
2022/03/11 10:23:59;;;;;;;14.38;6.15;;;21.20;26.20;;;;;;5014542;28;20321;-72
2022/03/11 10:26:36;;;;;;;14.27;6.28;;;21.70;26.60;;;;;;5013072;28;20028;-69
2022/03/11 10:29:04;;;;;;;11.45;6.45;;;22.50;26.20;;;;;;5012991;28;20034;-71
2022/03/11 10:31:43;;;;;;;12.48;6.00;;;22.30;25.40;;;;;;5014371;28;20431;-69
2022/03/11 10:34:24;;;;;;;9.63;5.82;;;21.30;25.00;;;;;;5014359;28;20381;-69
2022/03/11 10:37:15;;;;;;;12.57;6.22;;;20.70;25.30;;;;;;5014724;28;20014;-70
2022/03/11 10:39:45;;;;;;;12.32;5.93;;;20.10;25.50;;;;;;5014860;28;20018;-69
2022/03/11 10:42:21;;;;;;;10.85;5.90;;;20.20;25.60;;;;;;5013399;28;20032;-71
2022/03/11 10:45:19;;;;;;;21.92;7.95;;;20.10;25.40;;;;;;5014422;28;20483;-71
2022/03/11 10:47:46;;;;;;;16.15;6.20;;;20.30;25.80;;;;;;5012392;28;20041;-72
2022/03/11 10:50:13;;;;;;;12.80;6.65;;;21.60;26.20;;;;;;5012332;28;20046;-72
2022/03/11 10:52:46;;;;;;;10.73;5.97;;;21.70;25.70;;;;;;5013603;28;20530;-71
2022/03/11 10:55:22;;;;;;;14.75;6.38;;;20.90;25.10;;;;;;5013251;28;20038;-71
2022/03/11 10:57:51;;;;;;;11.82;6.10;;;21.30;25.80;;;;;;5012819;28;20024;-70
2022/03/11 11:00:21;;;;;;;16.08;6.75;;;22.40;25.40;;;;;;5012290;28;20030;-70
2022/03/11 11:02:48;;;;;;;14.55;6.68;;;22.80;25.00;;;;;;5012681;28;20034;-71
2022/03/11 11:05:14;;;;;;;15.47;6.47;;;23.20;24.60;;;;;;5012606;28;20041;-70
2022/03/11 11:07:44;;;;;;;10.60;5.53;;;21.60;24.20;;;;;;5012339;28;20326;-70
2022/03/11 11:10:11;;;;;;;16.67;6.22;;;21.60;24.50;;;;;;5012155;28;20041;-71
2022/03/11 11:12:39;;;;;;;16.67;6.78;;;22.50;25.00;;;;;;5012587;28;20038;-69
2022/03/11 11:15:05;;;;;;;13.32;6.70;;;22.60;24.90;;;;;;5012183;28;20030;-69
2022/03/11 11:17:32;;;;;;;14.80;7.05;;;22.00;25.20;;;;;;5011849;28;20030;-71
2022/03/11 11:20:00;;;;;;;18.23;7.25;;;22.40;25.10;;;;;;5012000;28;20049;-68
2022/03/11 11:22:27;;;;;;;13.80;7.20;;;22.30;25.20;;;;;;5011230;28;20108;-70
2022/03/11 11:24:54;;;;;;;13.50;5.72;;;22.20;24.90;;;;;;5011823;28;20038;-70
2022/03/11 11:27:20;;;;;;;12.20;6.15;;;22.40;24.80;;;;;;5012276;28;20025;-70
2022/03/11 11:29:50;;;;;;;14.68;7.90;;;21.70;24.80;;;;;;5011136;28;20064;-69
2022/03/11 11:32:18;;;;;;;13.95;7.05;;;21.10;24.50;;;;;;5012122;28;20026;-69
2022/03/11 11:34:43;;;;;;;11.15;6.15;;;22.30;24.70;;;;;;5012037;28;20407;-69
2022/03/11 11:37:38;;;;;;;12.80;6.05;;;21.60;23.70;;;;;;5010869;28;20056;-70
2022/03/11 11:40:21;;;;;;;11.88;5.15;;;21.60;24.10;;;;;;5011482;28;20056;-69
2022/03/11 11:43:26;;;;;;;16.33;5.90;;;20.70;24.00;;;;;;5010507;28;20136;-68
2022/03/11 11:45:58;;;;;;;9.20;5.90;;;20.50;24.20;;;;;;5010353;28;20026;-69
2022/03/11 11:48:33;;;;;;;18.02;5.93;;;19.90;24.10;;;;;;5011727;28;20038;-71
2022/03/11 11:50:59;;;;;;;11.43;5.72;;;19.60;24.10;;;;;;5011444;28;20026;-71
2022/03/11 11:53:35;;;;;;;14.52;5.53;;;19.10;24.10;;;;;;5011192;28;20045;-71
2022/03/11 11:56:07;;;;;;;11.60;5.35;;;18.20;24.50;;;;;;5011080;28;20028;-70
2022/03/11 11:58:33;;;;;;;14.70;5.60;;;17.40;25.20;;;;;;5011361;28;20062;-71
2022/03/11 12:00:58;;;;;;;14.10;5.22;;;16.90;25.50;;;;;;5011244;28;20064;-70
2022/03/11 12:03:49;;;;;;;13.07;5.53;;;16.20;25.70;;;;;;5012625;28;20448;-70
2022/03/11 12:06:53;;;;;;;15.10;6.38;;;15.40;26.10;;;;;;4993742;28;20035;-71
2022/03/11 12:09:37;;;;;;;10.27;5.60;;;15.20;26.50;;;;;;5011362;28;20045;-70
2022/03/11 12:12:07;;;;;;;20.90;6.47;;;15.00;26.60;;;;;;5011358;28;20054;-70
2022/03/11 12:14:53;;;;;;;11.80;5.45;;;14.60;26.70;;;;;;5011803;28;20096;-70
2022/03/11 12:17:37;;;;;;;24.55;7.68;;;14.60;27.10;;;;;;5011138;28;20037;-71
2022/03/11 12:20:49;;;;;;;11.75;6.22;;;14.40;27.30;;;;;;5012744;28;20033;-71
2022/03/11 12:23:14;;;;;;;13.60;6.20;;;14.40;27.50;;;;;;5011230;28;20127;-70
2022/03/11 12:26:00;;;;;;;14.40;6.22;;;14.00;27.60;;;;;;5009991;28;20481;-70
2022/03/11 12:28:28;;;;;;;14.10;5.97;;;13.90;27.90;;;;;;5011123;28;20037;-73
2022/03/11 12:30:55;;;;;;;14.27;5.63;;;13.90;28.10;;;;;;5011606;28;20022;-72
2022/03/11 12:33:30;;;;;;;13.27;5.60;;;13.60;28.00;;;;;;5010251;28;20119;-72
2022/03/11 12:35:57;;;;;;;20.25;6.70;;;13.60;28.10;;;;;;5010914;28;20478;-72
2022/03/11 12:38:25;;;;;;;10.90;5.55;;;13.60;28.40;;;;;;5010869;28;20095;-71
2022/03/11 12:40:52;;;;;;;13.57;5.80;;;13.50;28.20;;;;;;5010865;28;20072;-70
2022/03/11 12:43:20;;;;;;;15.68;5.25;;;13.20;28.10;;;;;;5010707;28;20050;-70
2022/03/11 12:45:45;;;;;;;;;;;13.20;28.30;;;;;;5011117;28;20467;-72